Aérodrome :
LOGIN :

S'inscrire | Disclaimer

   EN    FR    IT 

 










Légende :    VFR   VFR Marginal   IFR   IFR Intensif   IFR Très Intensif
Visi : 
Plafond : 
>= 8 km
>= 3000ft
5 à 8 km
1000 à 3000 ft
1500m à 5 km
500 à 1000 ft
800 à 1500m
200 à 500 ft
< 800m
< 200 ft
Symboles :   Orages  Brouillard  Fortes neiges  Fortes précipitations  Vent > 20 kt
SIGMETs :   Divers  Orages  Givrage  Turbulence  Onde Orograph.  Cendres Volcan.






- Altitude de l'aérodrome : 289 ft


LFYR - Romorantin Pruniers

DERNIER METAR :
  • 111800Z AUTO 02003KT 310V060 CAVOK 28/20 Q1013

METARs EXPIRÉS :
  • 111730Z AUTO VRB02KT CAVOK 29/20 Q1013
  • 111700Z AUTO VRB03KT CAVOK 29/19 Q1013
  • 111630Z AUTO VRB03KT CAVOK 29/19 Q1012
  • 111600Z AUTO VRB02KT CAVOK 28/20 Q1013
  • 111530Z AUTO VRB03KT CAVOK 27/20 Q1013 TEMPO VRB15G30KT 1000 TSRAGR BKN050CB

Prévision TAF périmée.



MET'MAP, la Météo Aéronautique d'un coup d'oeil ! - Copyright ORBIFLY Décembre 2007 - Disclaimer

ORBIFLY MET'MAP TEAM :

Programmation & Développement : Alexandra Zaïnal
Sur une idée originale de : Baudouin d'Aumeries
Assistance à la programmation : Marc-Olivier Méhu
Soutien technique & logistique : Manuel Goepfert

Contact : metmap@orbifly.com




SOURCES & CREDITS :

   NOAA